Time;durP1;ratioP1;P1;durP2;ratioP2;P2;SDS_P1;SDS_P2;PMS_P1;PMS_P2;Temp;Humidity;BMP_temperature;BMP_pressure;BME280_temperature;BME280_humidity;BME280_pressure;Samples;Min_cycle;Max_cycle;Signal;HPM_P1;HPM_P2
2023/10/07 00:00:38;;;;;;;16.25;13.20;;;;;;;;;;5003327;28;20538;-74
2023/10/07 00:03:09;;;;;;;14.73;12.32;;;;;;;;;;5003196;28;20865;-74
2023/10/07 00:05:41;;;;;;;15.57;12.70;;;;;;;;;;5003707;28;20659;-74
2023/10/07 00:08:12;;;;;;;19.25;13.18;;;;;;;;;;5001270;28;20108;-75
2023/10/07 00:10:41;;;;;;;15.63;13.43;;;;;;;;;;5002872;28;20038;-75
2023/10/07 00:13:10;;;;;;;17.85;13.43;;;;;;;;;;5002399;28;20096;-78
2023/10/07 00:15:37;;;;;;;19.60;13.00;;;;;;;;;;5004295;28;20030;-74
2023/10/07 00:18:13;;;;;;;20.38;14.00;;;;;;;;;;5005629;28;20065;-77
2023/10/07 00:20:51;;;;;;;20.08;14.48;;;;;;;;;;5003089;28;20037;-77
2023/10/07 00:23:22;;;;;;;18.38;13.60;;;;;;;;;;5003712;28;20087;-77
2023/10/07 00:25:52;;;;;;;18.80;13.55;;;;;;;;;;5000624;28;20452;-74
2023/10/07 00:28:28;;;;;;;19.63;14.27;;;;;;;;;;4996547;28;20038;-75
2023/10/07 00:30:55;;;;;;;20.52;15.10;;;;;;;;;;5000592;28;20034;-75
2023/10/07 00:33:22;;;;;;;18.88;14.15;;;;;;;;;;4999363;28;20034;-75
2023/10/07 00:35:53;;;;;;;18.35;13.52;;;;;;;;;;4999490;28;20048;-78
2023/10/07 00:38:23;;;;;;;21.60;14.27;;;;;;;;;;4982360;28;20353;-77
2023/10/07 00:40:56;;;;;;;19.58;14.52;;;;;;;;;;5003983;28;20080;-75
2023/10/07 00:43:27;;;;;;;21.30;14.35;;;;;;;;;;4999971;28;20153;-75
2023/10/07 00:45:59;;;;;;;18.02;14.10;;;;;;;;;;5010270;28;20492;-76
2023/10/07 00:48:43;;;;;;;21.92;14.00;;;;;;;;;;4998364;28;20059;-77
2023/10/07 00:51:11;;;;;;;17.95;14.63;;;;;;;;;;4994919;28;20092;-75
2023/10/07 00:53:45;;;;;;;18.80;14.18;;;;;;;;;;5003306;28;20042;-75
2023/10/07 00:56:15;;;;;;;20.42;15.00;;;;;;;;;;5025649;28;20104;-79
2023/10/07 00:58:42;;;;;;;18.48;15.18;;;;;;;;;;5024250;28;20038;-78
2023/10/07 01:01:12;;;;;;;17.13;14.35;;;;;;;;;;5039634;28;20033;-79
2023/10/07 01:03:51;;;;;;;16.52;13.77;;;;;;;;;;5021025;28;20030;-74
2023/10/07 01:06:27;;;;;;;19.83;14.40;;;;;;;;;;5028020;28;20034;-74
2023/10/07 01:09:07;;;;;;;16.20;14.00;;;;;;;;;;4998735;28;20030;-77
2023/10/07 01:11:37;;;;;;;17.95;13.75;;;;;;;;;;5001559;28;20073;-75
2023/10/07 01:14:05;;;;;;;16.63;13.55;;;;;;;;;;4990008;28;20096;-74
2023/10/07 01:19:05;;;;;;;16.45;14.43;;;;;;;;;;5006892;28;20029;-76
2023/10/07 01:21:33;;;;;;;19.25;13.40;;;;;;;;;;5000963;28;20105;-75
2023/10/07 01:24:05;;;;;;;20.15;14.43;;;;;;;;;;4999432;28;20129;-75
2023/10/07 01:26:33;;;;;;;19.23;13.95;;;;;;;;;;5015396;28;20726;-76
2023/10/07 01:29:13;;;;;;;23.15;14.45;;;;;;;;;;5005888;28;20556;-77
2023/10/07 01:32:03;;;;;;;19.55;13.57;;;;;;;;;;5004312;28;20041;-74
2023/10/07 01:34:30;;;;;;;15.63;13.68;;;;;;;;;;5018812;28;20041;-75
2023/10/07 01:37:00;;;;;;;16.25;12.98;;;;;;;;;;5014496;28;20034;-77
2023/10/07 01:39:31;;;;;;;20.05;13.23;;;;;;;;;;4999071;28;20109;-75
2023/10/07 01:42:01;;;;;;;16.95;12.43;;;;;;;;;;4999556;28;20026;-75
2023/10/07 01:44:31;;;;;;;17.65;12.48;;;;;;;;;;4998408;28;20507;-74
2023/10/07 01:46:56;;;;;;;16.73;13.40;;;;;;;;;;5000280;28;20373;-75
2023/10/07 01:49:22;;;;;;;14.52;13.00;;;;;;;;;;5003942;28;20040;-77
2023/10/07 01:51:52;;;;;;;14.68;13.05;;;;;;;;;;5001962;28;20061;-75
2023/10/07 01:54:21;;;;;;;15.35;11.93;;;;;;;;;;5004433;28;20469;-76
2023/10/07 01:56:48;;;;;;;15.40;13.68;;;;;;;;;;5017174;28;20046;-75
2023/10/07 02:01:43;;;;;;;20.45;14.02;;;;;;;;;;5001379;28;20037;-77
2023/10/07 02:04:18;;;;;;;19.92;13.60;;;;;;;;;;5000364;28;20100;-74
2023/10/07 02:06:54;;;;;;;20.98;13.70;;;;;;;;;;5003427;28;20038;-75
2023/10/07 02:09:27;;;;;;;12.95;11.68;;;;;;;;;;5013636;28;20041;-76
2023/10/07 02:11:55;;;;;;;21.33;14.60;;;;;;;;;;5003731;28;20037;-75
2023/10/07 02:14:25;;;;;;;15.77;11.95;;;;;;;;;;4998946;28;20059;-76
2023/10/07 02:16:52;;;;;;;19.15;13.90;;;;;;;;;;4995261;28;20498;-76
2023/10/07 02:22:22;;;;;;;14.50;12.85;;;;;;;;;;4937897;28;20061;-75
2023/10/07 02:25:01;;;;;;;17.23;13.43;;;;;;;;;;4940474;28;20031;-76
2023/10/07 02:27:28;;;;;;;20.03;14.30;;;;;;;;;;4954467;28;20476;-75
2023/10/07 02:29:57;;;;;;;19.30;14.45;;;;;;;;;;4959309;28;20053;-80
2023/10/07 02:32:23;;;;;;;15.82;12.73;;;;;;;;;;4956943;28;20097;-78
2023/10/07 02:34:52;;;;;;;16.77;13.55;;;;;;;;;;4956154;28;20453;-77
2023/10/07 02:37:21;;;;;;;20.67;14.07;;;;;;;;;;4943186;28;20053;-76
2023/10/07 02:39:50;;;;;;;18.65;13.10;;;;;;;;;;4958048;28;20047;-75
2023/10/07 02:42:21;;;;;;;17.00;13.80;;;;;;;;;;4962176;28;20038;-75
2023/10/07 02:45:01;;;;;;;16.33;13.43;;;;;;;;;;4940452;28;20130;-78
2023/10/07 02:47:31;;;;;;;14.68;13.15;;;;;;;;;;4958195;28;20065;-75
2023/10/07 02:50:00;;;;;;;19.25;14.32;;;;;;;;;;4928891;28;20126;-78
2023/10/07 02:52:34;;;;;;;16.60;12.38;;;;;;;;;;4944667;28;20070;-75
2023/10/07 02:55:28;;;;;;;15.73;13.35;;;;;;;;;;4944309;28;20062;-75
2023/10/07 02:57:57;;;;;;;15.82;12.77;;;;;;;;;;4970943;28;20073;-78
2023/10/07 03:00:37;;;;;;;12.77;11.57;;;;;;;;;;4999169;28;20026;-75
2023/10/07 03:03:19;;;;;;;13.93;11.85;;;;;;;;;;5000649;28;20061;-75
2023/10/07 03:05:45;;;;;;;12.50;11.30;;;;;;;;;;5008065;28;20034;-74
2023/10/07 03:08:21;;;;;;;12.60;11.25;;;;;;;;;;4998133;28;20040;-75
2023/10/07 03:11:03;;;;;;;13.55;12.15;;;;;;;;;;4999717;28;20042;-78
2023/10/07 03:13:30;;;;;;;14.52;11.18;;;;;;;;;;4997473;28;20038;-78
2023/10/07 03:24:12;;;;;;;14.23;12.07;;;;;;;;;;4968913;28;20062;-75
2023/10/07 03:26:47;;;;;;;15.70;13.02;;;;;;;;;;4974742;28;20030;-77
2023/10/07 03:29:30;;;;;;;14.07;12.23;;;;;;;;;;4977482;28;20047;-78
2023/10/07 03:31:59;;;;;;;16.02;12.45;;;;;;;;;;4970596;28;20038;-78
2023/10/07 03:34:25;;;;;;;14.13;12.23;;;;;;;;;;4979394;28;20042;-75
2023/10/07 03:42:20;;;;;;;14.27;12.88;;;;;;;;;;4963331;28;20042;-76
2023/10/07 03:44:49;;;;;;;16.67;12.98;;;;;;;;;;4975573;28;20150;-75
2023/10/07 03:47:15;;;;;;;14.50;12.57;;;;;;;;;;4977291;28;20055;-77
2023/10/07 03:49:41;;;;;;;16.25;12.60;;;;;;;;;;4990598;28;20054;-79
2023/10/07 03:52:12;;;;;;;16.67;12.77;;;;;;;;;;5006751;28;20038;-76
2023/10/07 03:54:42;;;;;;;15.77;12.90;;;;;;;;;;5003057;28;20479;-75
2023/10/07 03:57:09;;;;;;;17.13;12.95;;;;;;;;;;5001655;28;20164;-75
2023/10/07 03:59:36;;;;;;;16.17;13.15;;;;;;;;;;5003317;28;20043;-75
2023/10/07 04:02:29;;;;;;;19.63;13.13;;;;;;;;;;5007621;28;20048;-74
2023/10/07 04:04:58;;;;;;;18.00;13.27;;;;;;;;;;5003056;28;20040;-75
2023/10/07 04:07:25;;;;;;;19.30;13.15;;;;;;;;;;5005441;28;20052;-76
2023/10/07 04:09:51;;;;;;;16.40;13.35;;;;;;;;;;5007040;28;20030;-75
2023/10/07 04:12:17;;;;;;;13.45;12.07;;;;;;;;;;4999185;28;20041;-75
2023/10/07 04:14:42;;;;;;;15.80;12.40;;;;;;;;;;5006987;28;20033;-75
2023/10/07 04:17:12;;;;;;;14.38;12.88;;;;;;;;;;5001514;28;20034;-77
2023/10/07 04:19:40;;;;;;;14.93;13.13;;;;;;;;;;4998992;28;20470;-77
2023/10/07 04:22:08;;;;;;;15.30;12.43;;;;;;;;;;5002446;28;20044;-76
2023/10/07 04:24:38;;;;;;;14.02;12.68;;;;;;;;;;5000934;28;20041;-75
2023/10/07 04:27:05;;;;;;;18.42;12.55;;;;;;;;;;4996527;28;20030;-76
2023/10/07 04:29:32;;;;;;;14.07;12.38;;;;;;;;;;5000350;28;20038;-78
2023/10/07 04:32:13;;;;;;;19.58;13.20;;;;;;;;;;5003401;28;20038;-75
2023/10/07 04:35:00;;;;;;;17.15;12.93;;;;;;;;;;5007558;28;20034;-75
2023/10/07 04:37:30;;;;;;;13.73;12.43;;;;;;;;;;4999267;28;20069;-76
2023/10/07 04:42:39;;;;;;;15.93;13.50;;;;;;;;;;5001859;28;20033;-75
2023/10/07 04:45:22;;;;;;;19.88;13.18;;;;;;;;;;5001970;28;20049;-76
2023/10/07 04:48:23;;;;;;;16.15;12.65;;;;;;;;;;5002439;28;20128;-76
2023/10/07 04:51:02;;;;;;;17.75;12.60;;;;;;;;;;5003542;28;20037;-76
2023/10/07 04:53:36;;;;;;;16.65;10.88;;;;;;;;;;4998855;28;20034;-78
2023/10/07 04:56:01;;;;;;;11.52;10.43;;;;;;;;;;5002614;28;20038;-76
2023/10/07 04:58:27;;;;;;;19.65;12.88;;;;;;;;;;4999759;28;20109;-76
2023/10/07 05:01:04;;;;;;;15.90;12.18;;;;;;;;;;4998977;28;20072;-77
2023/10/07 05:03:31;;;;;;;13.43;11.93;;;;;;;;;;5000176;28;20100;-77
2023/10/07 05:05:58;;;;;;;16.35;12.23;;;;;;;;;;5000209;28;20621;-78
2023/10/07 05:08:27;;;;;;;16.48;12.65;;;;;;;;;;5001907;28;20087;-76
2023/10/07 05:10:54;;;;;;;13.52;11.25;;;;;;;;;;5001339;28;20634;-76
2023/10/07 05:13:20;;;;;;;15.07;12.52;;;;;;;;;;5001902;28;20047;-76
2023/10/07 05:15:46;;;;;;;13.73;12.27;;;;;;;;;;4995687;28;20851;-76
2023/10/07 05:18:16;;;;;;;17.70;11.82;;;;;;;;;;4999204;28;20053;-78
2023/10/07 05:20:47;;;;;;;14.13;12.50;;;;;;;;;;4993903;28;20042;-76
2023/10/07 05:23:17;;;;;;;14.50;12.73;;;;;;;;;;4993765;28;20042;-78
2023/10/07 05:25:48;;;;;;;14.10;12.70;;;;;;;;;;4996454;28;20048;-76
2023/10/07 05:28:20;;;;;;;16.38;12.05;;;;;;;;;;5000270;28;20140;-76
2023/10/07 05:30:52;;;;;;;13.77;12.32;;;;;;;;;;5002060;28;20065;-77
2023/10/07 05:33:27;;;;;;;16.50;12.30;;;;;;;;;;5000034;28;20519;-77
2023/10/07 05:35:58;;;;;;;17.58;13.40;;;;;;;;;;4995433;28;20073;-76
2023/10/07 05:38:25;;;;;;;14.70;12.07;;;;;;;;;;5000047;28;20037;-77
2023/10/07 05:40:51;;;;;;;13.23;11.75;;;;;;;;;;4998507;28;20035;-79
2023/10/07 05:43:17;;;;;;;13.18;11.88;;;;;;;;;;5000337;28;20088;-79
2023/10/07 05:45:45;;;;;;;13.98;11.73;;;;;;;;;;4999878;28;20065;-78
2023/10/07 05:48:11;;;;;;;13.88;12.35;;;;;;;;;;5000260;28;20087;-77
2023/10/07 05:50:38;;;;;;;14.65;13.07;;;;;;;;;;5001822;28;20044;-76
2023/10/07 05:53:04;;;;;;;13.57;12.00;;;;;;;;;;5002234;28;20509;-77
2023/10/07 05:55:36;;;;;;;13.63;12.23;;;;;;;;;;4999836;28;20148;-76
2023/10/07 05:58:02;;;;;;;14.85;12.07;;;;;;;;;;4998115;28;20495;-76
2023/10/07 06:00:32;;;;;;;15.13;12.02;;;;;;;;;;5012954;28;20030;-76
2023/10/07 06:03:02;;;;;;;15.48;12.98;;;;;;;;;;5004328;28;20040;-76
2023/10/07 06:05:29;;;;;;;14.65;13.02;;;;;;;;;;4994005;28;20042;-77
2023/10/07 06:07:57;;;;;;;14.68;12.85;;;;;;;;;;4998982;28;20407;-76
2023/10/07 06:10:24;;;;;;;15.68;12.88;;;;;;;;;;5007177;28;20058;-76
2023/10/07 06:12:53;;;;;;;13.32;11.93;;;;;;;;;;5000791;28;20137;-76
2023/10/07 06:15:20;;;;;;;14.95;11.68;;;;;;;;;;5001493;28;20419;-77
2023/10/07 06:17:47;;;;;;;14.40;11.02;;;;;;;;;;5018089;28;20042;-77
2023/10/07 06:20:15;;;;;;;13.13;11.68;;;;;;;;;;4995775;28;20080;-76
2023/10/07 06:22:45;;;;;;;12.47;11.23;;;;;;;;;;5011079;28;20038;-77
2023/10/07 06:25:17;;;;;;;15.18;12.43;;;;;;;;;;5001504;28;20041;-77
2023/10/07 06:27:43;;;;;;;14.50;11.25;;;;;;;;;;5000909;28;20125;-76
2023/10/07 06:30:20;;;;;;;15.18;11.82;;;;;;;;;;4997732;28;20126;-77
2023/10/07 06:32:54;;;;;;;15.13;10.95;;;;;;;;;;4999686;28;20037;-77
2023/10/07 06:35:25;;;;;;;12.27;11.10;;;;;;;;;;4999802;28;20049;-77
2023/10/07 06:37:52;;;;;;;14.82;12.65;;;;;;;;;;4998460;28;20072;-77
2023/10/07 06:40:40;;;;;;;12.55;11.27;;;;;;;;;;5000336;28;20048;-77
2023/10/07 06:43:04;;;;;;;13.85;11.02;;;;;;;;;;4998380;28;20146;-77
2023/10/07 06:45:39;;;;;;;13.02;11.38;;;;;;;;;;5003687;28;20061;-75
2023/10/07 06:48:08;;;;;;;11.98;10.70;;;;;;;;;;5001873;28;20037;-77
2023/10/07 06:50:35;;;;;;;12.70;11.43;;;;;;;;;;4984003;28;20042;-76
2023/10/07 06:53:01;;;;;;;11.23;10.10;;;;;;;;;;4999045;28;20112;-77
2023/10/07 06:55:28;;;;;;;13.85;11.55;;;;;;;;;;5002726;28;20038;-77
2023/10/07 06:57:56;;;;;;;13.57;11.90;;;;;;;;;;4999480;28;20110;-77
2023/10/07 07:00:37;;;;;;;12.85;11.50;;;;;;;;;;4980417;28;20159;-76
2023/10/07 07:03:09;;;;;;;13.10;11.77;;;;;;;;;;5003739;28;20026;-76
2023/10/07 07:05:35;;;;;;;13.10;11.65;;;;;;;;;;4997680;28;20067;-77
2023/10/07 07:08:03;;;;;;;14.07;12.60;;;;;;;;;;5000948;28;20034;-77
2023/10/07 07:10:31;;;;;;;18.70;13.05;;;;;;;;;;5000138;28;20034;-78
2023/10/07 07:13:34;;;;;;;13.30;11.90;;;;;;;;;;4999688;28;20034;-76
2023/10/07 07:15:57;;;;;;;11.88;10.68;;;;;;;;;;5001285;28;20111;-75
2023/10/07 07:18:26;;;;;;;12.50;11.20;;;;;;;;;;5002107;28;20040;-77
2023/10/07 07:21:13;;;;;;;15.20;11.88;;;;;;;;;;5002688;28;20037;-77
2023/10/07 07:23:40;;;;;;;14.93;11.95;;;;;;;;;;4998619;28;20691;-76
2023/10/07 07:26:10;;;;;;;12.73;11.35;;;;;;;;;;5011833;28;20087;-76
2023/10/07 07:28:42;;;;;;;12.20;10.98;;;;;;;;;;5004688;28;20548;-77
2023/10/07 07:31:18;;;;;;;11.88;10.77;;;;;;;;;;5002745;28;20073;-78
2023/10/07 07:33:48;;;;;;;11.90;10.80;;;;;;;;;;5000124;28;20042;-78
2023/10/07 07:36:39;;;;;;;14.00;10.90;;;;;;;;;;5001088;28;20438;-77
2023/10/07 07:39:09;;;;;;;12.10;10.90;;;;;;;;;;5001230;28;20042;-78
2023/10/07 07:41:55;;;;;;;11.75;10.57;;;;;;;;;;4995037;28;20395;-76
2023/10/07 07:44:32;;;;;;;12.27;11.13;;;;;;;;;;5004754;28;20144;-77
2023/10/07 07:47:05;;;;;;;11.77;10.48;;;;;;;;;;5003751;28;20121;-78
2023/10/07 07:49:36;;;;;;;12.73;10.68;;;;;;;;;;5001578;28;20045;-78
2023/10/07 07:52:08;;;;;;;11.63;10.43;;;;;;;;;;5007821;28;20034;-76
2023/10/07 07:54:33;;;;;;;12.40;11.02;;;;;;;;;;5000377;28;20034;-77
2023/10/07 07:57:04;;;;;;;11.80;10.60;;;;;;;;;;4998439;28;20669;-77
2023/10/07 07:59:32;;;;;;;12.07;10.95;;;;;;;;;;5003653;28;20046;-77
2023/10/07 08:02:17;;;;;;;12.20;10.90;;;;;;;;;;5002806;28;20033;-76
2023/10/07 08:04:48;;;;;;;12.75;11.45;;;;;;;;;;5002212;28;20041;-76
2023/10/07 08:09:51;;;;;;;11.50;10.32;;;;;;;;;;4998390;28;20030;-77
2023/10/07 08:12:36;;;;;;;12.05;10.75;;;;;;;;;;5002121;28;20120;-79
2023/10/07 08:17:39;;;;;;;13.75;10.80;;;;;;;;;;5002704;28;20518;-76
2023/10/07 08:20:12;;;;;;;12.00;10.70;;;;;;;;;;5005922;28;20041;-76
2023/10/07 08:22:51;;;;;;;11.45;10.35;;;;;;;;;;4997269;28;20034;-77
2023/10/07 08:25:37;;;;;;;11.43;10.23;;;;;;;;;;5006896;28;20161;-77
2023/10/07 08:28:22;;;;;;;11.18;10.10;;;;;;;;;;4979861;28;20072;-79
2023/10/07 08:30:48;;;;;;;11.57;10.32;;;;;;;;;;5007287;28;20032;-77
2023/10/07 08:33:15;;;;;;;11.30;10.10;;;;;;;;;;4995951;28;20037;-79
2023/10/07 08:35:44;;;;;;;11.25;10.13;;;;;;;;;;4981767;28;20116;-77
2023/10/07 08:38:20;;;;;;;11.43;10.15;;;;;;;;;;5003445;28;20116;-76
2023/10/07 08:41:04;;;;;;;11.38;10.27;;;;;;;;;;5001843;28;20531;-78
2023/10/07 08:44:02;;;;;;;12.10;10.73;;;;;;;;;;5003842;28;20040;-76
2023/10/07 08:46:28;;;;;;;11.73;10.60;;;;;;;;;;5003475;28;20037;-77
2023/10/07 08:48:58;;;;;;;12.32;11.05;;;;;;;;;;5001912;28;20041;-76
2023/10/07 08:51:24;;;;;;;12.15;10.50;;;;;;;;;;5000646;28;20030;-77
2023/10/07 08:53:56;;;;;;;13.50;11.07;;;;;;;;;;5003098;28;20052;-74
2023/10/07 08:56:25;;;;;;;12.07;10.52;;;;;;;;;;5001080;28;20049;-76
2023/10/07 08:58:51;;;;;;;;;;;;;;;;;;5001232;28;20034;-78
2023/10/07 09:01:17;;;;;;;12.77;10.07;;;;;;;;;;5003141;28;19928;-78
2023/10/07 09:03:49;;;;;;;15.35;10.52;;;;;;;;;;5002965;28;20037;-79
2023/10/07 09:06:16;;;;;;;12.30;10.90;;;;;;;;;;5004612;28;20046;-77
2023/10/07 09:08:45;;;;;;;11.57;10.43;;;;;;;;;;5000036;28;20037;-75
2023/10/07 09:11:18;;;;;;;12.98;10.77;;;;;;;;;;5006733;28;20038;-80
2023/10/07 09:13:46;;;;;;;11.60;10.35;;;;;;;;;;4998011;28;20484;-79
2023/10/07 09:16:13;;;;;;;13.80;10.25;;;;;;;;;;5000120;28;20034;-76
2023/10/07 09:18:41;;;;;;;14.07;11.18;;;;;;;;;;4997739;28;20029;-74
2023/10/07 09:21:09;;;;;;;12.23;10.63;;;;;;;;;;5000859;28;20121;-77
2023/10/07 09:23:47;;;;;;;11.70;10.50;;;;;;;;;;4983994;28;20038;-76
2023/10/07 09:26:21;;;;;;;14.07;11.03;;;;;;;;;;4998969;28;20038;-75
2023/10/07 09:29:15;;;;;;;12.73;11.40;;;;;;;;;;5002005;28;20297;-76
2023/10/07 09:31:45;;;;;;;12.13;10.90;;;;;;;;;;4994915;28;20129;-76
2023/10/07 09:34:24;;;;;;;12.60;10.55;;;;;;;;;;5007529;28;20120;-75
2023/10/07 09:36:53;;;;;;;12.43;10.55;;;;;;;;;;4999937;28;20081;-79
2023/10/07 09:39:34;;;;;;;12.52;11.20;;;;;;;;;;5003426;28;20454;-75
2023/10/07 09:42:04;;;;;;;17.25;10.77;;;;;;;;;;4999253;28;20642;-77
2023/10/07 09:44:31;;;;;;;11.38;10.18;;;;;;;;;;4998809;28;20101;-78
2023/10/07 09:47:04;;;;;;;13.77;10.50;;;;;;;;;;4992750;28;20084;-76
2023/10/07 09:49:30;;;;;;;12.02;10.43;;;;;;;;;;5002191;28;20036;-74
2023/10/07 09:52:15;;;;;;;13.70;10.65;;;;;;;;;;5001451;28;20034;-77
2023/10/07 09:55:27;;;;;;;16.55;10.95;;;;;;;;;;5006076;28;20048;-75
2023/10/07 09:58:00;;;;;;;11.88;10.60;;;;;;;;;;4991243;28;20053;-75
2023/10/07 10:01:02;;;;;;;11.70;10.07;;;;;;;;;;4996684;28;20117;-77
2023/10/07 10:03:51;;;;;;;11.85;10.65;;;;;;;;;;4993493;28;20113;-77
2023/10/07 10:06:47;;;;;;;14.07;10.70;;;;;;;;;;4996494;28;20484;-78
2023/10/07 10:09:23;;;;;;;11.93;10.70;;;;;;;;;;4995547;28;20038;-77
2023/10/07 10:12:18;;;;;;;12.23;10.68;;;;;;;;;;4998552;28;20087;-76
2023/10/07 10:14:56;;;;;;;15.80;10.55;;;;;;;;;;4993648;28;20057;-75
2023/10/07 10:17:39;;;;;;;10.80;9.70;;;;;;;;;;5006718;28;20049;-77
2023/10/07 10:20:16;;;;;;;11.18;10.18;;;;;;;;;;5001971;28;20042;-77
2023/10/07 10:22:52;;;;;;;12.10;10.18;;;;;;;;;;4999473;28;20483;-76
2023/10/07 10:25:39;;;;;;;11.40;10.25;;;;;;;;;;5000349;28;20048;-75
2023/10/07 10:28:07;;;;;;;14.00;10.45;;;;;;;;;;4999502;28;20538;-75
2023/10/07 10:30:33;;;;;;;11.88;10.35;;;;;;;;;;4997789;28;20096;-76
2023/10/07 10:33:07;;;;;;;11.50;10.40;;;;;;;;;;4997664;28;20037;-76
2023/10/07 10:35:40;;;;;;;16.27;10.07;;;;;;;;;;4997753;28;20531;-79
2023/10/07 10:38:09;;;;;;;13.95;9.93;;;;;;;;;;4997126;28;20078;-77
2023/10/07 10:40:39;;;;;;;10.60;9.50;;;;;;;;;;5000925;28;20046;-76
2023/10/07 10:43:05;;;;;;;12.18;10.73;;;;;;;;;;5018401;28;20022;-77
2023/10/07 10:45:31;;;;;;;11.73;9.93;;;;;;;;;;5009068;28;20041;-77
2023/10/07 10:47:59;;;;;;;10.93;9.65;;;;;;;;;;5008038;28;20033;-76
2023/10/07 10:50:28;;;;;;;12.70;10.30;;;;;;;;;;5003609;28;20499;-76
2023/10/07 10:52:55;;;;;;;11.82;9.63;;;;;;;;;;5001243;28;20799;-76
2023/10/07 10:55:26;;;;;;;11.82;9.60;;;;;;;;;;5005718;28;20042;-75
2023/10/07 10:57:52;;;;;;;19.55;10.20;;;;;;;;;;5006672;28;20041;-77
2023/10/07 11:00:22;;;;;;;10.90;9.13;;;;;;;;;;5013570;28;20046;-77
2023/10/07 11:02:55;;;;;;;9.60;8.70;;;;;;;;;;5009319;28;20120;-76
2023/10/07 11:05:21;;;;;;;12.77;8.82;;;;;;;;;;5018112;28;20128;-78
2023/10/07 11:07:50;;;;;;;10.20;8.75;;;;;;;;;;5005903;28;20038;-75
2023/10/07 11:10:23;;;;;;;11.73;8.90;;;;;;;;;;5002891;28;20045;-76
2023/10/07 11:12:54;;;;;;;10.80;8.32;;;;;;;;;;5004173;28;20034;-76
2023/10/07 11:15:26;;;;;;;11.18;9.20;;;;;;;;;;4999818;28;20376;-77
2023/10/07 11:17:58;;;;;;;9.38;8.48;;;;;;;;;;5004070;28;20040;-77
2023/10/07 11:20:30;;;;;;;13.00;8.73;;;;;;;;;;4999340;28;20037;-76
2023/10/07 11:22:57;;;;;;;10.40;8.60;;;;;;;;;;5003537;28;20034;-77
2023/10/07 11:25:24;;;;;;;9.77;8.68;;;;;;;;;;5001385;28;20571;-77
2023/10/07 11:27:51;;;;;;;9.60;8.60;;;;;;;;;;5001273;28;20088;-77
2023/10/07 11:30:17;;;;;;;9.35;8.45;;;;;;;;;;5005025;28;20037;-76
2023/10/07 11:32:46;;;;;;;9.27;8.38;;;;;;;;;;5002700;28;20510;-75
2023/10/07 11:35:30;;;;;;;9.45;8.30;;;;;;;;;;5007039;28;20492;-76
2023/10/07 11:38:02;;;;;;;9.05;8.35;;;;;;;;;;4996736;28;20045;-75
2023/10/07 11:40:30;;;;;;;8.52;7.82;;;;;;;;;;5011682;28;20036;-75
2023/10/07 11:42:58;;;;;;;9.23;8.32;;;;;;;;;;5009733;28;20138;-76
2023/10/07 11:45:26;;;;;;;9.32;8.52;;;;;;;;;;5000109;28;20042;-76
2023/10/07 11:47:56;;;;;;;9.27;8.13;;;;;;;;;;5004212;28;20030;-77
2023/10/07 11:50:29;;;;;;;8.80;8.00;;;;;;;;;;5003367;28;20033;-75
2023/10/07 11:52:55;;;;;;;8.90;8.05;;;;;;;;;;5002862;28;20033;-76
2023/10/07 11:55:20;;;;;;;11.23;8.05;;;;;;;;;;5002329;28;20038;-76
2023/10/07 11:57:46;;;;;;;9.55;8.48;;;;;;;;;;5001605;28;20119;-76
2023/10/07 12:00:23;;;;;;;8.93;8.13;;;;;;;;;;5001447;28;20042;-75
2023/10/07 12:02:52;;;;;;;9.65;8.65;;;;;;;;;;5010071;28;20427;-77
2023/10/07 12:05:18;;;;;;;12.80;9.05;;;;;;;;;;5013998;28;20036;-76
2023/10/07 12:07:47;;;;;;;9.32;8.50;;;;;;;;;;5001741;28;20033;-76
2023/10/07 12:10:17;;;;;;;9.30;8.40;;;;;;;;;;5017059;28;20043;-76
2023/10/07 12:12:43;;;;;;;10.02;8.40;;;;;;;;;;5015942;28;20053;-79
2023/10/07 12:15:15;;;;;;;8.80;8.00;;;;;;;;;;5009172;28;20041;-75
2023/10/07 12:17:43;;;;;;;9.57;8.32;;;;;;;;;;5011868;28;20034;-75
2023/10/07 12:20:12;;;;;;;9.82;8.70;;;;;;;;;;5005542;28;20038;-76
2023/10/07 12:22:42;;;;;;;8.77;8.07;;;;;;;;;;5004449;28;20108;-76
2023/10/07 12:25:16;;;;;;;9.25;8.50;;;;;;;;;;5005160;28;20657;-78
2023/10/07 12:27:46;;;;;;;9.25;8.13;;;;;;;;;;5010068;28;20033;-75
2023/10/07 12:30:14;;;;;;;8.85;8.13;;;;;;;;;;5006808;28;20037;-75
2023/10/07 12:32:41;;;;;;;9.60;8.70;;;;;;;;;;5014854;28;20590;-75
2023/10/07 12:35:09;;;;;;;11.40;8.48;;;;;;;;;;5011501;28;20061;-75
2023/10/07 12:37:38;;;;;;;9.32;8.00;;;;;;;;;;5014098;28;20038;-76
2023/10/07 12:40:10;;;;;;;;;;;;;;;;;;5004393;28;20045;-76
2023/10/07 12:42:39;;;;;;;8.60;7.95;;;;;;;;;;5002340;28;20008;-76
2023/10/07 12:45:06;;;;;;;10.40;8.70;;;;;;;;;;5000492;28;20046;-75
2023/10/07 12:47:33;;;;;;;8.75;8.02;;;;;;;;;;5003841;28;20061;-78
2023/10/07 12:49:58;;;;;;;9.05;8.25;;;;;;;;;;4999034;28;20049;-76
2023/10/07 12:52:26;;;;;;;9.70;8.50;;;;;;;;;;5001725;28;20050;-77
2023/10/07 12:54:52;;;;;;;9.45;8.65;;;;;;;;;;5000409;28;20671;-78
2023/10/07 12:57:17;;;;;;;9.60;8.70;;;;;;;;;;4998219;28;20030;-78
2023/10/07 12:59:47;;;;;;;8.90;8.00;;;;;;;;;;4998668;28;20037;-75
2023/10/07 13:02:17;;;;;;;;;;;;;;;;;;5003890;28;20049;-77
2023/10/07 13:04:44;;;;;;;9.48;8.57;;;;;;;;;;5005706;28;19983;-79
2023/10/07 13:07:10;;;;;;;11.40;8.63;;;;;;;;;;4997975;28;20812;-77
2023/10/07 13:09:40;;;;;;;9.30;8.40;;;;;;;;;;4996522;28;20034;-77
2023/10/07 13:12:15;;;;;;;11.10;8.77;;;;;;;;;;4992409;28;20029;-76
2023/10/07 13:14:41;;;;;;;10.40;9.05;;;;;;;;;;4999926;28;20046;-78
2023/10/07 13:17:07;;;;;;;9.55;8.68;;;;;;;;;;4998717;28;20111;-77
2023/10/07 13:19:36;;;;;;;9.73;8.70;;;;;;;;;;4997196;28;20048;-78
2023/10/07 13:22:06;;;;;;;9.48;8.68;;;;;;;;;;4995969;28;20034;-79
2023/10/07 13:24:32;;;;;;;11.07;9.15;;;;;;;;;;4967231;28;20549;-75
2023/10/07 13:26:58;;;;;;;9.95;9.05;;;;;;;;;;4990201;28;20061;-77
2023/10/07 13:29:23;;;;;;;10.63;9.73;;;;;;;;;;4995322;28;20466;-75
2023/10/07 13:31:51;;;;;;;9.15;8.25;;;;;;;;;;5004565;28;20088;-76
2023/10/07 13:34:17;;;;;;;9.82;8.93;;;;;;;;;;4996564;28;20037;-77
2023/10/07 13:36:43;;;;;;;11.05;9.23;;;;;;;;;;4997206;28;20030;-76
2023/10/07 13:39:18;;;;;;;9.77;8.98;;;;;;;;;;4989906;28;20528;-77
2023/10/07 13:41:44;;;;;;;11.82;9.38;;;;;;;;;;4991045;28;20031;-75
2023/10/07 13:44:16;;;;;;;10.50;9.60;;;;;;;;;;4997838;28;20120;-75
2023/10/07 13:46:44;;;;;;;9.63;8.65;;;;;;;;;;4992542;28;20041;-76
2023/10/07 13:49:11;;;;;;;10.10;9.10;;;;;;;;;;4994711;28;20041;-77
2023/10/07 13:51:41;;;;;;;10.18;9.27;;;;;;;;;;5004092;28;20111;-75
2023/10/07 13:54:38;;;;;;;9.40;8.50;;;;;;;;;;4999409;28;20042;-75
2023/10/07 13:57:17;;;;;;;11.02;9.63;;;;;;;;;;4990700;28;20040;-75
2023/10/07 13:59:44;;;;;;;;;;;;;;;;;;4993692;28;20103;-75
2023/10/07 14:02:13;;;;;;;10.43;9.43;;;;;;;;;;4998406;28;19932;-75
2023/10/07 14:04:39;;;;;;;10.80;9.38;;;;;;;;;;5001483;28;20048;-75
2023/10/07 14:07:06;;;;;;;10.40;9.60;;;;;;;;;;5000898;28;20542;-75
2023/10/07 14:09:32;;;;;;;10.18;9.15;;;;;;;;;;5003449;28;20029;-77
2023/10/07 14:11:57;;;;;;;10.07;9.07;;;;;;;;;;4995972;28;20034;-76
2023/10/07 14:14:27;;;;;;;10.70;9.32;;;;;;;;;;4999609;28;20033;-75
2023/10/07 14:16:58;;;;;;;12.43;10.40;;;;;;;;;;4998907;28;20038;-75
2023/10/07 14:19:24;;;;;;;10.52;9.52;;;;;;;;;;4996644;28;20520;-75
2023/10/07 14:21:50;;;;;;;10.93;9.82;;;;;;;;;;4996413;28;20057;-78
2023/10/07 14:24:16;;;;;;;12.35;10.30;;;;;;;;;;5006883;28;20076;-76
2023/10/07 14:26:43;;;;;;;10.98;9.88;;;;;;;;;;4998154;28;20061;-76
2023/10/07 14:29:09;;;;;;;9.98;9.00;;;;;;;;;;4998947;28;20093;-76
2023/10/07 14:31:43;;;;;;;11.98;10.20;;;;;;;;;;5000507;28;20029;-76
2023/10/07 14:34:08;;;;;;;9.82;8.93;;;;;;;;;;5008883;28;20145;-75
2023/10/07 14:36:34;;;;;;;10.23;9.25;;;;;;;;;;4992838;28;20596;-76
2023/10/07 14:39:00;;;;;;;11.20;10.25;;;;;;;;;;5003463;28;20057;-76
2023/10/07 14:41:28;;;;;;;11.05;9.82;;;;;;;;;;4989913;28;20037;-75
2023/10/07 14:43:56;;;;;;;16.90;10.48;;;;;;;;;;4990702;28;20040;-75
2023/10/07 14:46:22;;;;;;;10.70;9.60;;;;;;;;;;5005977;28;20580;-75
2023/10/07 14:48:49;;;;;;;11.30;10.15;;;;;;;;;;4997960;28;20037;-76
2023/10/07 14:51:17;;;;;;;10.68;9.77;;;;;;;;;;4998408;28;20073;-74
2023/10/07 14:53:43;;;;;;;12.10;10.60;;;;;;;;;;5000749;28;20042;-76
2023/10/07 14:56:11;;;;;;;13.77;10.57;;;;;;;;;;4997429;28;20398;-76
2023/10/07 14:58:36;;;;;;;11.60;10.40;;;;;;;;;;4999613;28;20088;-75
2023/10/07 15:01:06;;;;;;;11.80;10.60;;;;;;;;;;4996048;28;20030;-75
2023/10/07 15:03:32;;;;;;;12.75;11.10;;;;;;;;;;5000496;28;20030;-76
2023/10/07 15:06:08;;;;;;;11.65;10.45;;;;;;;;;;4999558;28;20056;-75
2023/10/07 15:08:35;;;;;;;12.13;10.10;;;;;;;;;;4986991;28;20665;-77
2023/10/07 15:11:00;;;;;;;11.23;10.05;;;;;;;;;;4997554;28;20539;-75
2023/10/07 15:13:26;;;;;;;11.18;10.05;;;;;;;;;;5011956;28;20038;-77
2023/10/07 15:15:52;;;;;;;11.38;10.18;;;;;;;;;;5007420;28;20033;-76